createdAt,value
2018-04-19T00:02:19.463Z,22.37
2018-04-19T00:04:46.170Z,22.37
2018-04-19T00:07:12.804Z,22.35
2018-04-19T00:09:39.507Z,22.32
2018-04-19T00:12:06.265Z,22.36
2018-04-19T00:14:32.963Z,22.36
2018-04-19T00:16:59.704Z,22.32
2018-04-19T00:19:26.460Z,22.29
2018-04-19T00:21:53.132Z,22.29
2018-04-19T00:24:19.805Z,22.28
2018-04-19T00:26:46.488Z,22.28
2018-04-19T00:29:13.222Z,22.24
2018-04-19T00:31:39.928Z,22.28
2018-04-19T00:34:06.575Z,22.25
2018-04-19T00:36:33.272Z,22.22
2018-04-19T00:38:59.946Z,22.19
2018-04-19T00:41:26.662Z,22.20
2018-04-19T00:43:53.297Z,22.23
2018-04-19T00:46:20.001Z,22.17
2018-04-19T00:48:46.640Z,22.16
2018-04-19T00:51:13.355Z,22.15
2018-04-19T00:53:40.018Z,22.15
2018-04-19T00:56:06.722Z,22.13
2018-04-19T00:58:33.383Z,22.14
2018-04-19T01:01:00.100Z,22.12
2018-04-19T01:03:26.806Z,22.13
2018-04-19T01:05:53.463Z,22.11
2018-04-19T01:08:20.164Z,22.10
2018-04-19T01:10:46.836Z,22.05
2018-04-19T01:13:13.478Z,22.11
2018-04-19T01:15:40.201Z,22.08
2018-04-19T01:18:06.910Z,22.04
2018-04-19T01:20:33.572Z,22.06
2018-04-19T01:23:00.281Z,22.04
2018-04-19T01:25:27.028Z,22.03
2018-04-19T01:27:53.729Z,22.02
2018-04-19T01:30:20.365Z,22.02
2018-04-19T01:32:47.100Z,22.00
2018-04-19T01:35:13.798Z,21.97
2018-04-19T01:37:40.430Z,21.99
2018-04-19T01:40:07.092Z,21.98
2018-04-19T01:42:33.802Z,21.98
2018-04-19T01:45:00.503Z,21.95
2018-04-19T01:47:27.261Z,21.94
2018-04-19T01:49:53.929Z,21.93
2018-04-19T01:52:20.646Z,21.95
2018-04-19T01:54:47.320Z,21.92
2018-04-19T01:57:13.955Z,21.87
2018-04-19T01:59:40.625Z,21.88
2018-04-19T02:02:07.304Z,21.88
2018-04-19T02:04:33.967Z,21.88
2018-04-19T02:07:00.640Z,21.87
2018-04-19T02:09:27.347Z,21.86
2018-04-19T02:11:54.019Z,21.84
2018-04-19T02:14:20.643Z,21.85
2018-04-19T02:16:47.319Z,21.80
2018-04-19T02:19:14.066Z,21.82
2018-04-19T02:21:40.686Z,21.82
2018-04-19T02:24:07.379Z,21.80
2018-04-19T02:26:34.042Z,21.79
2018-04-19T02:29:00.715Z,21.79
2018-04-19T02:31:27.348Z,21.75
2018-04-19T02:33:54.031Z,21.78
2018-04-19T02:36:20.699Z,21.74
2018-04-19T02:38:47.408Z,21.74
2018-04-19T02:41:14.080Z,21.73
2018-04-19T02:43:40.716Z,21.75
2018-04-19T02:46:07.380Z,21.75
2018-04-19T02:48:34.055Z,21.74
2018-04-19T02:51:00.715Z,21.73
2018-04-19T02:53:27.376Z,21.70
2018-04-19T02:55:54.056Z,21.71
2018-04-19T02:58:20.731Z,21.73
2018-04-19T03:00:47.392Z,21.72
2018-04-19T03:03:14.072Z,21.68
2018-04-19T03:05:40.748Z,21.68
2018-04-19T03:08:07.390Z,21.71
2018-04-19T03:10:34.072Z,21.65
2018-04-19T03:13:00.700Z,21.65
2018-04-19T03:15:27.331Z,21.72
2018-04-19T03:17:53.974Z,21.68
2018-04-19T03:20:20.671Z,21.44
2018-04-19T03:22:47.280Z,21.42
2018-04-19T03:25:13.883Z,21.50
2018-04-19T03:27:40.530Z,21.38
2018-04-19T03:30:07.171Z,21.41
2018-04-19T03:32:33.805Z,21.32
2018-04-19T03:35:00.452Z,21.40
2018-04-19T03:37:27.086Z,21.28
2018-04-19T03:39:53.722Z,21.26
2018-04-19T03:42:20.391Z,21.11
2018-04-19T03:44:47.019Z,21.12
2018-04-19T03:47:13.622Z,21.27
2018-04-19T03:49:40.258Z,21.37
2018-04-19T03:52:06.928Z,21.42
2018-04-19T03:54:33.582Z,21.44
2018-04-19T03:57:00.185Z,21.44
2018-04-19T03:59:26.856Z,21.43
2018-04-19T04:01:53.495Z,21.55
2018-04-19T04:04:20.079Z,21.52
2018-04-19T04:06:46.753Z,21.58
2018-04-19T04:09:13.389Z,21.53
2018-04-19T04:11:40.005Z,21.47
2018-04-19T04:14:06.666Z,21.52
2018-04-19T04:16:33.324Z,21.57
2018-04-19T04:18:59.994Z,21.67
2018-04-19T04:21:26.625Z,21.72
2018-04-19T04:23:53.272Z,21.87
2018-04-19T04:26:19.882Z,21.81
2018-04-19T04:28:46.513Z,21.80
2018-04-19T04:31:13.175Z,21.91
2018-04-19T04:33:39.823Z,21.91
2018-04-19T04:36:06.458Z,22.03
2018-04-19T04:38:33.059Z,22.09
2018-04-19T04:40:59.701Z,22.19
2018-04-19T04:43:26.343Z,22.08
2018-04-19T04:45:52.979Z,22.14
2018-04-19T04:48:19.612Z,22.17
2018-04-19T04:50:46.273Z,22.16
2018-04-19T04:53:12.915Z,22.19
2018-04-19T04:55:39.513Z,22.16
2018-04-19T04:58:06.150Z,22.20
2018-04-19T05:00:32.785Z,22.23
2018-04-19T05:02:59.429Z,22.25
2018-04-19T05:05:26.085Z,22.25
2018-04-19T05:07:52.727Z,22.26
2018-04-19T05:10:19.353Z,22.29
2018-04-19T05:12:46.031Z,22.31
2018-04-19T05:15:12.636Z,22.38
2018-04-19T05:17:39.290Z,22.40
2018-04-19T05:20:05.958Z,22.48
2018-04-19T05:22:32.553Z,22.52
2018-04-19T05:24:59.234Z,22.61
2018-04-19T05:27:25.908Z,22.61
2018-04-19T05:29:52.522Z,22.64
2018-04-19T05:32:19.183Z,22.68
2018-04-19T05:34:45.853Z,22.75
2018-04-19T05:37:12.529Z,22.84
2018-04-19T05:39:39.117Z,23.35
2018-04-19T05:42:05.769Z,23.11
2018-04-19T05:44:32.406Z,23.09
2018-04-19T05:47:02.505Z,23.11
2018-04-19T05:49:29.152Z,23.13
2018-04-19T05:51:55.825Z,23.20
2018-04-19T05:54:22.436Z,23.31
2018-04-19T05:56:49.103Z,23.43
2018-04-19T05:59:16.136Z,23.53
2018-04-19T06:01:42.807Z,23.56
2018-04-19T06:04:09.427Z,23.60
2018-04-19T06:06:36.062Z,23.73
2018-04-19T06:09:02.729Z,23.77
2018-04-19T06:11:29.361Z,23.79
2018-04-19T06:13:56.042Z,23.88
2018-04-19T06:16:22.728Z,24.01
2018-04-19T06:18:49.385Z,24.07
2018-04-19T06:21:16.022Z,24.08
2018-04-19T06:23:42.703Z,24.08
2018-04-19T06:26:09.345Z,24.20
2018-04-19T06:28:36.103Z,24.28
2018-04-19T06:31:02.699Z,24.37
2018-04-19T06:33:29.344Z,24.40
2018-04-19T06:35:56.002Z,24.41
2018-04-19T06:38:22.622Z,24.30
2018-04-19T06:40:49.272Z,24.46
2018-04-19T06:43:15.974Z,24.51
2018-04-19T06:45:42.654Z,24.46
2018-04-19T06:48:09.300Z,24.43
2018-04-19T06:50:35.968Z,24.41
2018-04-19T06:53:02.565Z,24.46
2018-04-19T06:55:29.213Z,24.44
2018-04-19T06:57:55.861Z,24.51
2018-04-19T07:00:22.541Z,24.46
2018-04-19T07:02:49.181Z,24.47
2018-04-19T07:05:15.827Z,24.46
2018-04-19T07:07:42.425Z,24.39
2018-04-19T07:10:10.272Z,24.35
2018-04-19T07:12:36.916Z,24.38
2018-04-19T07:15:03.552Z,24.44
2018-04-19T07:17:30.202Z,24.49
2018-04-19T07:19:56.839Z,24.47
2018-04-19T07:22:23.525Z,24.40
2018-04-19T07:24:50.173Z,24.53
2018-04-19T07:27:16.772Z,24.53
2018-04-19T07:29:43.525Z,24.47
2018-04-19T07:32:10.132Z,24.55
2018-04-19T07:34:36.877Z,24.58
2018-04-19T07:37:03.441Z,24.67
2018-04-19T07:39:30.082Z,24.74
2018-04-19T07:41:56.717Z,24.70
2018-04-19T07:44:23.392Z,24.83
2018-04-19T07:46:50.139Z,24.79
2018-04-19T07:49:16.828Z,24.78
2018-04-19T07:51:43.460Z,24.96
2018-04-19T07:54:10.062Z,25.06
2018-04-19T07:56:36.744Z,24.92
2018-04-19T07:59:03.394Z,24.98
2018-04-19T08:01:30.042Z,25.07
2018-04-19T08:03:56.708Z,24.97
2018-04-19T08:06:23.379Z,25.09
2018-04-19T08:08:50.042Z,25.14
2018-04-19T08:11:16.687Z,25.19
2018-04-19T08:13:43.313Z,25.20
2018-04-19T08:16:09.943Z,24.94
2018-04-19T08:18:36.585Z,24.86
2018-04-19T08:21:03.266Z,24.78
2018-04-19T08:23:29.862Z,24.91
2018-04-19T08:25:56.509Z,24.95
2018-04-19T08:28:23.155Z,24.96
2018-04-19T08:30:49.840Z,25.15
2018-04-19T08:33:16.484Z,25.20
2018-04-19T08:35:43.114Z,25.20
2018-04-19T08:38:09.720Z,25.29
2018-04-19T08:40:36.395Z,25.15
2018-04-19T08:43:03.005Z,25.17
2018-04-19T08:45:29.639Z,25.20
2018-04-19T08:47:56.286Z,25.04
2018-04-19T08:50:22.928Z,25.11
2018-04-19T08:52:49.617Z,25.17
2018-04-19T08:55:16.259Z,25.23
2018-04-19T08:57:42.898Z,25.23
2018-04-19T09:00:09.578Z,25.20
2018-04-19T09:02:36.308Z,25.13
2018-04-19T09:05:02.954Z,25.16
2018-04-19T09:07:29.587Z,25.08
2018-04-19T09:09:56.273Z,25.22
2018-04-19T09:12:22.870Z,25.26
2018-04-19T09:14:49.548Z,25.11
2018-04-19T09:17:16.169Z,25.23
2018-04-19T09:19:42.903Z,25.26
2018-04-19T09:22:09.501Z,25.30
2018-04-19T09:24:36.174Z,25.31
2018-04-19T09:27:02.810Z,25.26
2018-04-19T09:29:29.415Z,25.30
2018-04-19T09:31:56.192Z,25.29
2018-04-19T09:34:22.790Z,25.13
2018-04-19T09:36:49.486Z,25.10
2018-04-19T09:39:16.081Z,25.19
2018-04-19T09:41:42.806Z,25.23
2018-04-19T09:44:09.441Z,25.31
2018-04-19T09:46:36.086Z,25.37
2018-04-19T09:49:02.770Z,25.34
2018-04-19T09:51:29.411Z,25.30
2018-04-19T09:53:56.062Z,25.41
2018-04-19T09:56:22.698Z,25.42
2018-04-19T09:58:49.370Z,25.41
2018-04-19T10:01:15.975Z,25.44
2018-04-19T10:03:42.610Z,25.46
2018-04-19T10:06:09.253Z,25.50
2018-04-19T10:08:35.887Z,25.57
2018-04-19T10:11:02.562Z,25.57
2018-04-19T10:13:29.296Z,25.64
2018-04-19T10:15:56.013Z,25.67
2018-04-19T10:18:22.581Z,25.70
2018-04-19T10:20:49.225Z,25.72
2018-04-19T10:23:15.871Z,25.72
2018-04-19T10:25:42.521Z,25.76
2018-04-19T10:28:09.215Z,25.75
2018-04-19T10:30:35.857Z,25.77
2018-04-19T10:33:02.510Z,25.75
2018-04-19T10:35:29.253Z,25.76
2018-04-19T10:37:55.926Z,25.74
2018-04-19T10:40:22.532Z,25.73
2018-04-19T10:42:49.218Z,25.52
2018-04-19T10:45:15.860Z,25.52
2018-04-19T10:47:42.497Z,25.39
2018-04-19T10:50:09.147Z,25.47
2018-04-19T10:52:35.964Z,25.48
2018-04-19T10:55:02.595Z,25.63
2018-04-19T10:57:29.196Z,25.67
2018-04-19T10:59:55.844Z,25.75
2018-04-19T11:02:24.676Z,25.77
2018-04-19T11:04:51.357Z,25.82
2018-04-19T11:07:17.955Z,25.78
2018-04-19T11:09:44.634Z,25.86
2018-04-19T11:12:11.237Z,25.88
2018-04-19T11:14:37.909Z,25.91
2018-04-19T11:17:04.720Z,25.89
2018-04-19T11:19:31.409Z,25.88
2018-04-19T11:21:58.011Z,25.87
2018-04-19T11:24:24.705Z,25.81
2018-04-19T11:26:51.391Z,25.93
2018-04-19T11:29:18.046Z,25.95
2018-04-19T11:31:44.675Z,25.95
2018-04-19T11:34:13.657Z,25.98
2018-04-19T11:36:40.360Z,25.93
2018-04-19T11:39:06.925Z,25.94
2018-04-19T11:41:33.571Z,26.04
2018-04-19T11:44:00.286Z,26.12
2018-04-19T11:46:26.964Z,26.03
2018-04-19T11:48:53.554Z,26.03
2018-04-19T11:51:20.369Z,26.10
2018-04-19T11:53:47.049Z,26.16
2018-04-19T11:56:14.726Z,26.22
2018-04-19T11:58:41.397Z,26.21
2018-04-19T12:01:08.117Z,26.15
2018-04-19T12:03:34.696Z,26.14
2018-04-19T12:06:01.522Z,26.28
2018-04-19T12:08:28.120Z,26.32
2018-04-19T12:10:54.842Z,26.31
2018-04-19T12:13:21.536Z,26.35
2018-04-19T12:15:48.158Z,26.28
2018-04-19T12:18:14.803Z,26.31
2018-04-19T12:20:41.441Z,26.26
2018-04-19T12:23:08.129Z,26.25
2018-04-19T12:25:34.887Z,26.36
2018-04-19T12:28:01.533Z,26.37
2018-04-19T12:30:28.178Z,26.37
2018-04-19T12:32:54.854Z,26.39
2018-04-19T12:35:21.519Z,26.38
2018-04-19T12:37:48.182Z,26.43
2018-04-19T12:40:16.893Z,26.50
2018-04-19T12:42:43.569Z,26.42
2018-04-19T12:45:10.251Z,26.44
2018-04-19T12:47:36.885Z,26.42
2018-04-19T12:50:03.588Z,26.48
2018-04-19T12:52:30.250Z,26.43
2018-04-19T12:54:56.981Z,26.53
2018-04-19T12:57:23.621Z,26.48
2018-04-19T12:59:50.297Z,26.38
2018-04-19T13:02:16.951Z,26.45
2018-04-19T13:04:43.677Z,26.40
2018-04-19T13:07:10.343Z,26.42
2018-04-19T13:09:36.973Z,26.49
2018-04-19T13:12:03.616Z,26.40
2018-04-19T13:14:30.287Z,26.31
2018-04-19T13:16:56.937Z,26.35
2018-04-19T13:19:23.669Z,26.31
2018-04-19T13:21:50.311Z,26.33
2018-04-19T13:24:17.472Z,26.38
2018-04-19T13:26:44.159Z,26.53
2018-04-19T13:29:10.805Z,26.46
2018-04-19T13:31:37.451Z,26.48
2018-04-19T13:34:04.103Z,26.40
2018-04-19T13:36:30.799Z,26.50
2018-04-19T13:38:57.448Z,26.64
2018-04-19T13:41:24.068Z,26.68
2018-04-19T13:43:50.706Z,26.60
2018-04-19T13:46:17.449Z,26.56
2018-04-19T13:48:44.095Z,26.43
2018-04-19T13:51:10.728Z,26.59
2018-04-19T13:53:37.336Z,26.47
2018-04-19T13:56:04.101Z,26.57
2018-04-19T13:58:30.735Z,26.61
2018-04-19T14:00:57.439Z,26.68
2018-04-19T14:03:24.082Z,26.63
2018-04-19T14:05:50.822Z,26.78
2018-04-19T14:08:17.528Z,26.65
2018-04-19T14:10:44.131Z,26.65
2018-04-19T14:13:10.766Z,26.63
2018-04-19T14:15:37.413Z,26.52
2018-04-19T14:18:04.075Z,26.55
2018-04-19T14:20:30.755Z,26.59
2018-04-19T14:22:57.383Z,26.59
2018-04-19T14:25:23.990Z,26.42
2018-04-19T14:27:50.701Z,26.41
2018-04-19T14:30:17.341Z,26.42
2018-04-19T14:32:44.017Z,26.46
2018-04-19T14:35:10.618Z,26.51
2018-04-19T14:37:37.254Z,26.41
2018-04-19T14:40:03.898Z,26.42
2018-04-19T14:42:30.535Z,26.33
2018-04-19T14:44:57.172Z,26.52
2018-04-19T14:47:23.852Z,26.43
2018-04-19T14:49:50.590Z,26.31
2018-04-19T14:52:17.262Z,26.28
2018-04-19T14:54:43.970Z,26.20
2018-04-19T14:57:10.569Z,26.11
2018-04-19T14:59:37.205Z,26.19
2018-04-19T15:02:03.877Z,26.31
2018-04-19T15:04:30.525Z,26.28
2018-04-19T15:06:57.127Z,26.28
2018-04-19T15:09:23.773Z,26.38
2018-04-19T15:11:50.441Z,26.27
2018-04-19T15:14:17.083Z,26.13
2018-04-19T15:16:43.685Z,26.08
2018-04-19T15:19:10.318Z,26.07
2018-04-19T15:21:36.959Z,26.04
2018-04-19T15:24:03.598Z,25.93
2018-04-19T15:26:30.264Z,25.99
2018-04-19T15:28:56.912Z,26.18
2018-04-19T15:31:23.517Z,26.06
2018-04-19T15:33:50.151Z,25.98
2018-04-19T15:36:16.786Z,26.14
2018-04-19T15:38:43.457Z,25.93
2018-04-19T15:41:10.090Z,25.86
2018-04-19T15:43:36.785Z,25.88
2018-04-19T15:46:03.452Z,25.82
2018-04-19T15:48:30.103Z,25.82
2018-04-19T15:50:56.750Z,25.73
2018-04-19T15:53:23.436Z,25.71
2018-04-19T15:55:50.068Z,25.67
2018-04-19T15:58:16.722Z,25.66
2018-04-19T16:00:43.410Z,25.60
2018-04-19T16:03:10.044Z,25.59
2018-04-19T16:05:36.673Z,25.57
2018-04-19T16:08:03.324Z,25.47
2018-04-19T16:10:29.961Z,25.45
2018-04-19T16:12:56.715Z,25.43
2018-04-19T16:15:23.288Z,25.48
2018-04-19T16:17:49.954Z,25.42
2018-04-19T16:20:16.596Z,25.39
2018-04-19T16:22:43.263Z,25.53
2018-04-19T16:25:09.916Z,25.54
2018-04-19T16:27:36.580Z,25.47
2018-04-19T16:30:03.175Z,25.37
2018-04-19T16:32:29.854Z,25.46
2018-04-19T16:34:56.491Z,25.33
2018-04-19T16:37:23.138Z,25.35
2018-04-19T16:39:49.871Z,25.30
2018-04-19T16:42:16.514Z,25.31
2018-04-19T16:44:43.160Z,25.39
2018-04-19T16:47:09.874Z,25.35
2018-04-19T16:49:36.516Z,25.29
2018-04-19T16:52:03.163Z,25.24
2018-04-19T16:54:29.802Z,25.22
2018-04-19T16:56:56.456Z,25.18
2018-04-19T16:59:23.101Z,25.22
2018-04-19T17:01:49.756Z,25.20
2018-04-19T17:04:16.371Z,25.13
2018-04-19T17:06:43.065Z,25.12
2018-04-19T17:09:09.666Z,25.12
2018-04-19T17:11:36.354Z,25.09
2018-04-19T17:14:03.027Z,25.09
2018-04-19T17:16:29.673Z,25.09
2018-04-19T17:18:56.298Z,24.99
2018-04-19T17:21:22.992Z,24.96
2018-04-19T17:23:49.683Z,24.96
2018-04-19T17:26:16.347Z,24.95
2018-04-19T17:28:42.950Z,24.91
2018-04-19T17:31:09.606Z,24.91
2018-04-19T17:33:36.274Z,24.92
2018-04-19T17:36:02.991Z,24.94
2018-04-19T17:38:29.707Z,24.92
2018-04-19T17:40:56.345Z,24.90
2018-04-19T17:43:23.039Z,24.86
2018-04-19T17:45:49.643Z,24.84
2018-04-19T17:48:16.279Z,24.81
2018-04-19T17:50:42.956Z,24.77
2018-04-19T17:53:09.556Z,24.78
2018-04-19T17:55:36.240Z,24.75
2018-04-19T17:58:02.875Z,24.76
2018-04-19T18:00:29.535Z,24.73
2018-04-19T18:02:56.151Z,24.75
2018-04-19T18:05:22.838Z,24.81
2018-04-19T18:07:49.475Z,24.89
2018-04-19T18:10:16.113Z,24.81
2018-04-19T18:12:42.772Z,24.84
2018-04-19T18:15:09.406Z,24.87
2018-04-19T18:17:36.046Z,24.85
2018-04-19T18:20:02.714Z,24.82
2018-04-19T18:22:29.377Z,24.78
2018-04-19T18:24:56.039Z,24.75
2018-04-19T18:27:24.999Z,24.74
2018-04-19T18:29:51.659Z,24.74
2018-04-19T18:32:18.325Z,24.73
2018-04-19T18:34:44.934Z,24.72
2018-04-19T18:37:11.564Z,24.70
2018-04-19T18:39:38.243Z,24.68
2018-04-19T18:42:04.913Z,24.66
2018-04-19T18:44:31.509Z,24.67
2018-04-19T18:46:58.180Z,24.65
2018-04-19T18:49:24.777Z,24.65
2018-04-19T18:51:51.453Z,24.64
2018-04-19T18:54:18.058Z,24.61
2018-04-19T18:56:44.698Z,24.58
2018-04-19T18:59:11.365Z,24.58
2018-04-19T19:01:37.960Z,24.59
2018-04-19T19:04:04.636Z,24.56
2018-04-19T19:06:31.259Z,24.53
2018-04-19T19:08:57.917Z,24.55
2018-04-19T19:11:25.932Z,24.57
2018-04-19T19:13:51.229Z,24.50
2018-04-19T19:16:17.810Z,24.49
2018-04-19T19:18:44.524Z,24.48
2018-04-19T19:21:11.158Z,24.44
2018-04-19T19:23:37.762Z,24.45
2018-04-19T19:26:04.466Z,24.45
2018-04-19T19:28:31.142Z,24.44
2018-04-19T19:30:57.733Z,24.42
2018-04-19T19:33:24.408Z,24.40
2018-04-19T19:35:51.058Z,24.41
2018-04-19T19:38:17.662Z,24.39
2018-04-19T19:40:44.329Z,24.36
2018-04-19T19:43:10.971Z,24.36
2018-04-19T19:45:37.575Z,24.34
2018-04-19T19:48:04.252Z,24.36
2018-04-19T19:50:30.851Z,24.34
2018-04-19T19:52:57.519Z,24.31
2018-04-19T19:55:24.143Z,24.31
2018-04-19T19:57:50.778Z,24.29
2018-04-19T20:00:17.437Z,24.28
2018-04-19T20:02:44.086Z,24.28
2018-04-19T20:05:10.778Z,24.26
2018-04-19T20:07:37.445Z,24.25
2018-04-19T20:10:04.132Z,24.24
2018-04-19T20:12:30.735Z,24.21
2018-04-19T20:14:57.362Z,24.20
2018-04-19T20:17:24.002Z,24.20
2018-04-19T20:19:50.634Z,24.20
2018-04-19T20:22:17.309Z,24.19
2018-04-19T20:24:43.981Z,24.16
2018-04-19T20:27:10.669Z,24.14
2018-04-19T20:29:37.306Z,24.12
2018-04-19T20:32:03.909Z,24.11
2018-04-19T20:34:30.582Z,24.14
2018-04-19T20:36:57.270Z,24.09
2018-04-19T20:39:23.876Z,24.11
2018-04-19T20:41:50.537Z,24.08
2018-04-19T20:44:17.215Z,24.07
2018-04-19T20:46:43.819Z,24.07
2018-04-19T20:49:10.487Z,24.08
2018-04-19T20:51:37.086Z,24.06
2018-04-19T20:54:03.810Z,24.05
2018-04-19T20:56:30.455Z,24.00
2018-04-19T20:58:57.120Z,24.02
2018-04-19T21:01:23.718Z,24.01
2018-04-19T21:03:50.356Z,24.01
2018-04-19T21:06:16.993Z,23.99
2018-04-19T21:08:43.630Z,23.98
2018-04-19T21:11:10.296Z,23.95
2018-04-19T21:13:36.987Z,23.95
2018-04-19T21:16:03.583Z,23.94
2018-04-19T21:18:30.221Z,23.94
2018-04-19T21:20:56.858Z,23.93
2018-04-19T21:23:23.530Z,23.93
2018-04-19T21:25:50.177Z,23.91
2018-04-19T21:28:16.807Z,23.90
2018-04-19T21:30:43.453Z,23.88
2018-04-19T21:33:10.123Z,23.90
2018-04-19T21:35:36.760Z,23.87
2018-04-19T21:38:03.362Z,23.87
2018-04-19T21:40:30.063Z,23.86
2018-04-19T21:42:56.793Z,23.83
2018-04-19T21:45:23.430Z,23.85
2018-04-19T21:47:50.079Z,23.84
2018-04-19T21:50:16.744Z,23.82
2018-04-19T21:52:43.440Z,23.83
2018-04-19T21:55:10.108Z,23.81
2018-04-19T21:57:36.824Z,23.79
2018-04-19T22:00:03.456Z,23.80
2018-04-19T22:02:30.051Z,23.72
2018-04-19T22:04:56.694Z,23.78
2018-04-19T22:07:23.324Z,23.76
2018-04-19T22:09:49.969Z,23.76
2018-04-19T22:12:16.696Z,23.75
2018-04-19T22:14:43.304Z,23.71
2018-04-19T22:17:09.930Z,23.70
2018-04-19T22:19:36.580Z,23.70
2018-04-19T22:22:03.205Z,23.71
2018-04-19T22:24:29.843Z,23.69
2018-04-19T22:26:56.480Z,23.67
2018-04-19T22:29:23.189Z,23.67
2018-04-19T22:31:49.832Z,23.66
2018-04-19T22:34:16.463Z,23.66
2018-04-19T22:36:43.099Z,23.65
2018-04-19T22:39:09.825Z,23.60
2018-04-19T22:41:36.497Z,23.64
2018-04-19T22:44:03.181Z,23.61
2018-04-19T22:46:29.833Z,23.60
2018-04-19T22:48:56.469Z,23.56
2018-04-19T22:51:23.179Z,23.55
2018-04-19T22:53:49.786Z,23.56
2018-04-19T22:56:16.436Z,23.57
2018-04-19T22:58:43.074Z,23.53
2018-04-19T23:01:09.717Z,23.52
2018-04-19T23:03:36.355Z,23.51
2018-04-19T23:06:03.083Z,23.51
2018-04-19T23:08:31.843Z,23.51
2018-04-19T23:10:58.501Z,23.49
2018-04-19T23:13:25.106Z,23.41
2018-04-19T23:15:51.821Z,23.48
2018-04-19T23:18:18.520Z,23.45
2018-04-19T23:20:45.222Z,23.43
2018-04-19T23:23:11.865Z,23.43
2018-04-19T23:25:38.506Z,23.42
2018-04-19T23:28:05.232Z,23.43
2018-04-19T23:30:31.849Z,23.42
2018-04-19T23:32:58.475Z,23.43
2018-04-19T23:35:25.115Z,23.42
2018-04-19T23:37:51.756Z,23.40
2018-04-19T23:40:18.489Z,23.38
2018-04-19T23:42:45.078Z,23.35
2018-04-19T23:45:11.748Z,23.37
2018-04-19T23:47:38.406Z,23.35
2018-04-19T23:50:05.091Z,23.35
2018-04-19T23:52:31.694Z,23.35
2018-04-19T23:54:58.337Z,23.31
2018-04-19T23:57:25.080Z,23.29
2018-04-19T23:59:51.733Z,23.30
